Hidalgo, Texas
Current Conditions -  °F | °C
As of 8:53 PM on Friday 28 Nov 2014 (Local Time) from KMFE Reporting Station
Clear Clear  
Wind Chill: 62°   Ceiling: Unl
Heat Index: 62°   Visibility: 10mi
Dew Point: 57°   Wind: 7mph
Humidity: 84%   Direction: 160°SSE
Pressure: 30.17"   Gusts: NA
Location:  26.1°N, 98.26°W
Report Text: KMFE 290253Z 16006KT 10SM CLR 17/14 A3017 RMK AO2 SLP214 T01670139 51011
Loading
Personal Weather Stations






























Interactive Weather Map New forecast layout! Learn more

10-Day Weather Forecast

Advertisements
Track Severe Weather on mobile